sensor_id;sensor_type;location;lat;lon;timestamp;P1;durP1;ratioP1;P2;durP2;ratioP2
39190;SDS011;24916;51.676;6.614;2023-11-21T00:01:43;3.00;;;2.05;;
39190;SDS011;24916;51.676;6.614;2023-11-21T00:04:09;2.40;;;1.88;;
39190;SDS011;24916;51.676;6.614;2023-11-21T00:06:34;2.55;;;2.05;;
39190;SDS011;24916;51.676;6.614;2023-11-21T00:08:59;2.13;;;1.58;;
39190;SDS011;24916;51.676;6.614;2023-11-21T00:11:25;2.53;;;1.67;;
39190;SDS011;24916;51.676;6.614;2023-11-21T00:13:50;3.22;;;1.90;;
39190;SDS011;24916;51.676;6.614;2023-11-21T00:16:16;2.67;;;1.73;;
39190;SDS011;24916;51.676;6.614;2023-11-21T00:18:41;2.40;;;1.60;;
39190;SDS011;24916;51.676;6.614;2023-11-21T00:21:07;3.03;;;1.70;;
39190;SDS011;24916;51.676;6.614;2023-11-21T00:23:34;2.15;;;1.85;;
39190;SDS011;24916;51.676;6.614;2023-11-21T00:25:59;2.78;;;2.03;;
39190;SDS011;24916;51.676;6.614;2023-11-21T00:28:26;2.58;;;1.92;;
39190;SDS011;24916;51.676;6.614;2023-11-21T00:30:51;2.22;;;1.80;;
39190;SDS011;24916;51.676;6.614;2023-11-21T00:33:17;2.15;;;1.65;;
39190;SDS011;24916;51.676;6.614;2023-11-21T00:35:42;2.53;;;1.90;;
39190;SDS011;24916;51.676;6.614;2023-11-21T00:38:08;2.13;;;1.75;;
39190;SDS011;24916;51.676;6.614;2023-11-21T00:40:36;2.80;;;1.65;;
39190;SDS011;24916;51.676;6.614;2023-11-21T00:43:01;2.50;;;1.70;;
39190;SDS011;24916;51.676;6.614;2023-11-21T00:45:26;2.08;;;1.73;;
39190;SDS011;24916;51.676;6.614;2023-11-21T00:47:52;1.50;;;1.30;;
39190;SDS011;24916;51.676;6.614;2023-11-21T00:50:17;2.65;;;1.88;;
39190;SDS011;24916;51.676;6.614;2023-11-21T00:52:42;3.15;;;1.90;;
39190;SDS011;24916;51.676;6.614;2023-11-21T00:55:09;1.90;;;1.70;;
39190;SDS011;24916;51.676;6.614;2023-11-21T00:57:35;2.70;;;1.52;;
39190;SDS011;24916;51.676;6.614;2023-11-21T01:00:00;2.60;;;1.80;;
39190;SDS011;24916;51.676;6.614;2023-11-21T01:02:25;2.85;;;1.80;;
39190;SDS011;24916;51.676;6.614;2023-11-21T01:04:52;2.75;;;1.60;;
39190;SDS011;24916;51.676;6.614;2023-11-21T01:07:17;1.80;;;1.42;;
39190;SDS011;24916;51.676;6.614;2023-11-21T01:09:45;2.60;;;1.70;;
39190;SDS011;24916;51.676;6.614;2023-11-21T01:12:10;1.90;;;1.40;;
39190;SDS011;24916;51.676;6.614;2023-11-21T01:14:36;2.85;;;1.90;;
39190;SDS011;24916;51.676;6.614;2023-11-21T01:17:01;2.78;;;1.60;;
39190;SDS011;24916;51.676;6.614;2023-11-21T01:19:29;2.33;;;1.60;;
39190;SDS011;24916;51.676;6.614;2023-11-21T01:21:54;2.05;;;1.67;;
39190;SDS011;24916;51.676;6.614;2023-11-21T01:24:19;2.33;;;1.60;;
39190;SDS011;24916;51.676;6.614;2023-11-21T01:26:45;2.38;;;1.70;;
39190;SDS011;24916;51.676;6.614;2023-11-21T01:29:11;3.00;;;1.50;;
39190;SDS011;24916;51.676;6.614;2023-11-21T01:31:37;2.25;;;1.70;;
39190;SDS011;24916;51.676;6.614;2023-11-21T01:34:02;2.78;;;1.70;;
39190;SDS011;24916;51.676;6.614;2023-11-21T01:36:31;2.65;;;1.60;;
39190;SDS011;24916;51.676;6.614;2023-11-21T01:38:57;2.05;;;1.55;;
39190;SDS011;24916;51.676;6.614;2023-11-21T01:41:29;2.72;;;1.90;;
39190;SDS011;24916;51.676;6.614;2023-11-21T01:43:54;2.00;;;1.65;;
39190;SDS011;24916;51.676;6.614;2023-11-21T01:46:20;2.28;;;1.60;;
39190;SDS011;24916;51.676;6.614;2023-11-21T01:48:46;1.95;;;1.50;;
39190;SDS011;24916;51.676;6.614;2023-11-21T01:51:12;2.10;;;1.35;;
39190;SDS011;24916;51.676;6.614;2023-11-21T01:53:37;2.05;;;1.52;;
39190;SDS011;24916;51.676;6.614;2023-11-21T01:56:03;2.03;;;1.50;;
39190;SDS011;24916;51.676;6.614;2023-11-21T01:58:28;2.08;;;1.35;;
39190;SDS011;24916;51.676;6.614;2023-11-21T02:00:54;2.08;;;1.77;;
39190;SDS011;24916;51.676;6.614;2023-11-21T02:03:20;2.17;;;1.65;;
39190;SDS011;24916;51.676;6.614;2023-11-21T02:05:45;2.10;;;1.60;;
39190;SDS011;24916;51.676;6.614;2023-11-21T02:08:11;2.22;;;1.40;;
39190;SDS011;24916;51.676;6.614;2023-11-21T02:10:36;2.35;;;1.52;;
39190;SDS011;24916;51.676;6.614;2023-11-21T02:13:02;1.52;;;1.15;;
39190;SDS011;24916;51.676;6.614;2023-11-21T02:15:28;1.95;;;1.50;;
39190;SDS011;24916;51.676;6.614;2023-11-21T02:17:54;1.85;;;1.38;;
39190;SDS011;24916;51.676;6.614;2023-11-21T02:20:23;2.17;;;1.60;;
39190;SDS011;24916;51.676;6.614;2023-11-21T02:22:52;1.80;;;1.48;;
39190;SDS011;24916;51.676;6.614;2023-11-21T02:25:31;1.60;;;1.42;;
39190;SDS011;24916;51.676;6.614;2023-11-21T02:28:00;1.65;;;1.45;;
39190;SDS011;24916;51.676;6.614;2023-11-21T02:30:25;2.08;;;1.52;;
39190;SDS011;24916;51.676;6.614;2023-11-21T02:32:52;2.38;;;1.42;;
39190;SDS011;24916;51.676;6.614;2023-11-21T02:35:18;3.13;;;1.40;;
39190;SDS011;24916;51.676;6.614;2023-11-21T02:37:46;2.45;;;1.55;;
39190;SDS011;24916;51.676;6.614;2023-11-21T02:40:11;1.70;;;1.48;;
39190;SDS011;24916;51.676;6.614;2023-11-21T02:42:37;2.83;;;1.65;;
39190;SDS011;24916;51.676;6.614;2023-11-21T02:45:03;2.63;;;1.50;;
39190;SDS011;24916;51.676;6.614;2023-11-21T02:47:31;2.15;;;1.50;;
39190;SDS011;24916;51.676;6.614;2023-11-21T02:49:56;1.52;;;1.30;;
39190;SDS011;24916;51.676;6.614;2023-11-21T02:52:21;2.40;;;1.70;;
39190;SDS011;24916;51.676;6.614;2023-11-21T02:54:46;2.63;;;1.65;;
39190;SDS011;24916;51.676;6.614;2023-11-21T02:57:12;2.95;;;1.48;;
39190;SDS011;24916;51.676;6.614;2023-11-21T02:59:38;2.58;;;1.40;;
39190;SDS011;24916;51.676;6.614;2023-11-21T03:02:03;1.73;;;1.45;;
39190;SDS011;24916;51.676;6.614;2023-11-21T03:04:29;3.13;;;1.80;;
39190;SDS011;24916;51.676;6.614;2023-11-21T03:06:54;1.83;;;1.35;;
39190;SDS011;24916;51.676;6.614;2023-11-21T03:09:19;2.45;;;1.55;;
39190;SDS011;24916;51.676;6.614;2023-11-21T03:11:45;2.40;;;1.80;;
39190;SDS011;24916;51.676;6.614;2023-11-21T03:14:10;1.70;;;1.40;;
39190;SDS011;24916;51.676;6.614;2023-11-21T03:16:36;2.83;;;1.40;;
39190;SDS011;24916;51.676;6.614;2023-11-21T03:19:03;2.60;;;1.65;;
39190;SDS011;24916;51.676;6.614;2023-11-21T03:21:28;2.10;;;1.55;;
39190;SDS011;24916;51.676;6.614;2023-11-21T03:23:54;2.30;;;1.20;;
39190;SDS011;24916;51.676;6.614;2023-11-21T03:26:19;2.22;;;1.48;;
39190;SDS011;24916;51.676;6.614;2023-11-21T03:28:45;1.52;;;1.25;;
39190;SDS011;24916;51.676;6.614;2023-11-21T03:31:15;2.33;;;1.50;;
39190;SDS011;24916;51.676;6.614;2023-11-21T03:33:42;2.17;;;1.40;;
39190;SDS011;24916;51.676;6.614;2023-11-21T03:36:07;1.63;;;1.25;;
39190;SDS011;24916;51.676;6.614;2023-11-21T03:38:33;2.97;;;1.73;;
39190;SDS011;24916;51.676;6.614;2023-11-21T03:40:58;2.03;;;1.40;;
39190;SDS011;24916;51.676;6.614;2023-11-21T03:43:23;1.85;;;1.40;;
39190;SDS011;24916;51.676;6.614;2023-11-21T03:45:50;2.13;;;1.60;;
39190;SDS011;24916;51.676;6.614;2023-11-21T08:34:57;2.08;;;1.42;;
39190;SDS011;24916;51.676;6.614;2023-11-21T08:37:22;1.73;;;1.35;;
39190;SDS011;24916;51.676;6.614;2023-11-21T08:39:47;1.83;;;1.67;;
39190;SDS011;24916;51.676;6.614;2023-11-21T08:42:19;1.98;;;1.63;;
39190;SDS011;24916;51.676;6.614;2023-11-21T08:44:44;1.70;;;1.60;;
39190;SDS011;24916;51.676;6.614;2023-11-21T08:47:09;2.30;;;1.90;;
39190;SDS011;24916;51.676;6.614;2023-11-21T08:49:35;1.90;;;1.67;;
39190;SDS011;24916;51.676;6.614;2023-11-21T08:52:00;3.80;;;1.60;;
39190;SDS011;24916;51.676;6.614;2023-11-21T08:54:26;1.90;;;1.70;;
39190;SDS011;24916;51.676;6.614;2023-11-21T08:56:54;1.60;;;1.38;;
39190;SDS011;24916;51.676;6.614;2023-11-21T08:59:19;2.97;;;1.55;;
39190;SDS011;24916;51.676;6.614;2023-11-21T09:01:45;4.28;;;1.70;;
39190;SDS011;24916;51.676;6.614;2023-11-21T09:04:10;3.08;;;1.80;;
39190;SDS011;24916;51.676;6.614;2023-11-21T09:06:35;1.60;;;1.48;;
39190;SDS011;24916;51.676;6.614;2023-11-21T09:09:01;2.35;;;1.70;;
39190;SDS011;24916;51.676;6.614;2023-11-21T09:11:27;2.78;;;1.50;;
39190;SDS011;24916;51.676;6.614;2023-11-21T09:13:58;2.08;;;1.58;;
39190;SDS011;24916;51.676;6.614;2023-11-21T09:16:23;1.85;;;1.45;;
39190;SDS011;24916;51.676;6.614;2023-11-21T09:18:50;1.65;;;1.52;;
39190;SDS011;24916;51.676;6.614;2023-11-21T09:21:16;2.13;;;1.70;;
39190;SDS011;24916;51.676;6.614;2023-11-21T09:23:44;2.35;;;1.70;;
39190;SDS011;24916;51.676;6.614;2023-11-21T09:26:09;1.92;;;1.55;;
39190;SDS011;24916;51.676;6.614;2023-11-21T09:28:35;2.85;;;1.70;;
39190;SDS011;24916;51.676;6.614;2023-11-21T09:31:02;2.08;;;1.70;;
39190;SDS011;24916;51.676;6.614;2023-11-21T09:33:29;2.22;;;1.63;;
39190;SDS011;24916;51.676;6.614;2023-11-21T09:35:55;1.70;;;1.50;;
39190;SDS011;24916;51.676;6.614;2023-11-21T09:38:20;1.73;;;1.60;;
39190;SDS011;24916;51.676;6.614;2023-11-21T09:40:46;1.45;;;1.35;;
39190;SDS011;24916;51.676;6.614;2023-11-21T09:43:17;2.22;;;1.63;;
39190;SDS011;24916;51.676;6.614;2023-11-21T09:45:46;2.05;;;1.70;;
39190;SDS011;24916;51.676;6.614;2023-11-21T09:48:14;1.42;;;1.33;;
39190;SDS011;24916;51.676;6.614;2023-11-21T09:50:41;1.88;;;1.60;;
39190;SDS011;24916;51.676;6.614;2023-11-21T09:53:13;1.70;;;1.38;;
39190;SDS011;24916;51.676;6.614;2023-11-21T09:55:44;2.03;;;1.73;;
39190;SDS011;24916;51.676;6.614;2023-11-21T09:58:09;3.58;;;2.15;;
39190;SDS011;24916;51.676;6.614;2023-11-21T10:00:38;2.33;;;1.75;;
39190;SDS011;24916;51.676;6.614;2023-11-21T10:03:05;2.90;;;2.28;;
39190;SDS011;24916;51.676;6.614;2023-11-21T10:05:30;2.75;;;2.33;;
39190;SDS011;24916;51.676;6.614;2023-11-21T10:07:59;3.75;;;2.60;;
39190;SDS011;24916;51.676;6.614;2023-11-21T10:10:24;3.45;;;2.70;;
39190;SDS011;24916;51.676;6.614;2023-11-21T10:12:53;3.13;;;2.80;;
39190;SDS011;24916;51.676;6.614;2023-11-21T10:15:23;3.85;;;2.53;;
39190;SDS011;24916;51.676;6.614;2023-11-21T10:17:50;3.83;;;3.15;;
39190;SDS011;24916;51.676;6.614;2023-11-21T10:20:18;3.38;;;2.92;;
39190;SDS011;24916;51.676;6.614;2023-11-21T10:22:44;4.15;;;3.45;;
39190;SDS011;24916;51.676;6.614;2023-11-21T10:25:11;3.58;;;2.95;;
39190;SDS011;24916;51.676;6.614;2023-11-21T10:27:39;3.75;;;3.38;;
39190;SDS011;24916;51.676;6.614;2023-11-21T10:30:05;3.67;;;3.30;;
39190;SDS011;24916;51.676;6.614;2023-11-21T10:32:30;3.00;;;2.67;;
39190;SDS011;24916;51.676;6.614;2023-11-21T10:34:59;4.15;;;3.10;;
39190;SDS011;24916;51.676;6.614;2023-11-21T10:37:34;5.00;;;3.28;;
39190;SDS011;24916;51.676;6.614;2023-11-21T10:39:59;3.42;;;2.88;;
39190;SDS011;24916;51.676;6.614;2023-11-21T10:42:25;3.97;;;3.58;;
39190;SDS011;24916;51.676;6.614;2023-11-21T10:44:52;3.95;;;3.35;;
39190;SDS011;24916;51.676;6.614;2023-11-21T10:47:18;3.28;;;2.50;;
39190;SDS011;24916;51.676;6.614;2023-11-21T10:49:44;3.20;;;2.58;;
39190;SDS011;24916;51.676;6.614;2023-11-21T10:52:12;4.30;;;3.10;;
39190;SDS011;24916;51.676;6.614;2023-11-21T10:54:42;5.63;;;3.42;;
39190;SDS011;24916;51.676;6.614;2023-11-21T10:57:07;4.18;;;3.50;;
39190;SDS011;24916;51.676;6.614;2023-11-21T10:59:33;4.30;;;3.22;;
39190;SDS011;24916;51.676;6.614;2023-11-21T11:01:58;4.25;;;3.30;;
39190;SDS011;24916;51.676;6.614;2023-11-21T11:04:27;4.78;;;3.75;;
39190;SDS011;24916;51.676;6.614;2023-11-21T11:06:56;4.03;;;3.13;;
39190;SDS011;24916;51.676;6.614;2023-11-21T11:09:22;3.63;;;3.10;;
39190;SDS011;24916;51.676;6.614;2023-11-21T11:11:47;4.05;;;2.92;;
39190;SDS011;24916;51.676;6.614;2023-11-21T11:14:14;4.07;;;3.00;;
39190;SDS011;24916;51.676;6.614;2023-11-21T11:16:39;3.88;;;3.10;;
39190;SDS011;24916;51.676;6.614;2023-11-21T11:19:11;3.78;;;3.00;;
39190;SDS011;24916;51.676;6.614;2023-11-21T11:27:01;3.83;;;2.80;;
39190;SDS011;24916;51.676;6.614;2023-11-21T11:29:45;3.83;;;2.80;;
39190;SDS011;24916;51.676;6.614;2023-11-21T11:32:25;3.65;;;2.70;;
39190;SDS011;24916;51.676;6.614;2023-11-21T11:35:04;2.75;;;2.47;;
39190;SDS011;24916;51.676;6.614;2023-11-21T11:37:31;3.70;;;2.65;;
39190;SDS011;24916;51.676;6.614;2023-11-21T11:39:57;3.17;;;2.75;;
39190;SDS011;24916;51.676;6.614;2023-11-21T11:42:24;3.05;;;2.60;;
39190;SDS011;24916;51.676;6.614;2023-11-21T11:44:51;3.05;;;2.50;;
39190;SDS011;24916;51.676;6.614;2023-11-21T11:47:23;4.82;;;2.33;;
39190;SDS011;24916;51.676;6.614;2023-11-21T11:52:34;3.00;;;2.22;;
39190;SDS011;24916;51.676;6.614;2023-11-21T11:55:00;2.30;;;2.00;;
39190;SDS011;24916;51.676;6.614;2023-11-21T11:57:25;3.40;;;2.35;;
39190;SDS011;24916;51.676;6.614;2023-11-21T12:00:10;2.95;;;2.03;;
39190;SDS011;24916;51.676;6.614;2023-11-21T12:02:57;2.85;;;2.30;;
39190;SDS011;24916;51.676;6.614;2023-11-21T12:05:24;3.38;;;2.15;;
39190;SDS011;24916;51.676;6.614;2023-11-21T12:07:56;2.35;;;1.90;;
39190;SDS011;24916;51.676;6.614;2023-11-21T12:10:25;3.00;;;2.28;;
39190;SDS011;24916;51.676;6.614;2023-11-21T12:12:52;2.10;;;1.90;;
39190;SDS011;24916;51.676;6.614;2023-11-21T12:15:22;3.50;;;2.30;;
39190;SDS011;24916;51.676;6.614;2023-11-21T12:17:48;2.78;;;2.22;;
39190;SDS011;24916;51.676;6.614;2023-11-21T12:20:14;2.67;;;2.25;;
39190;SDS011;24916;51.676;6.614;2023-11-21T12:22:44;2.85;;;2.17;;
39190;SDS011;24916;51.676;6.614;2023-11-21T12:25:10;2.72;;;2.00;;
39190;SDS011;24916;51.676;6.614;2023-11-21T12:27:37;2.30;;;1.90;;
39190;SDS011;24916;51.676;6.614;2023-11-21T12:30:03;2.97;;;2.10;;
39190;SDS011;24916;51.676;6.614;2023-11-21T12:32:29;2.08;;;1.83;;
39190;SDS011;24916;51.676;6.614;2023-11-21T12:34:55;2.47;;;1.98;;
39190;SDS011;24916;51.676;6.614;2023-11-21T12:37:20;2.10;;;1.85;;
39190;SDS011;24916;51.676;6.614;2023-11-21T12:39:45;2.00;;;1.73;;
39190;SDS011;24916;51.676;6.614;2023-11-21T12:42:11;3.10;;;1.98;;
39190;SDS011;24916;51.676;6.614;2023-11-21T12:44:36;3.08;;;1.98;;
39190;SDS011;24916;51.676;6.614;2023-11-21T12:47:06;3.05;;;2.00;;
39190;SDS011;24916;51.676;6.614;2023-11-21T12:49:31;3.15;;;2.15;;
39190;SDS011;24916;51.676;6.614;2023-11-21T12:51:59;2.50;;;2.00;;
39190;SDS011;24916;51.676;6.614;2023-11-21T12:54:24;2.28;;;2.00;;
39190;SDS011;24916;51.676;6.614;2023-11-21T12:56:49;3.22;;;2.00;;
39190;SDS011;24916;51.676;6.614;2023-11-21T12:59:15;2.50;;;1.90;;
39190;SDS011;24916;51.676;6.614;2023-11-21T13:01:43;4.00;;;2.10;;
39190;SDS011;24916;51.676;6.614;2023-11-21T13:04:08;2.97;;;2.10;;
39190;SDS011;24916;51.676;6.614;2023-11-21T13:06:35;2.05;;;1.85;;
39190;SDS011;24916;51.676;6.614;2023-11-21T13:09:05;2.53;;;1.90;;
39190;SDS011;24916;51.676;6.614;2023-11-21T13:11:33;3.08;;;1.75;;
39190;SDS011;24916;51.676;6.614;2023-11-21T13:13:59;2.35;;;1.88;;
39190;SDS011;24916;51.676;6.614;2023-11-21T13:16:28;2.70;;;2.10;;
39190;SDS011;24916;51.676;6.614;2023-11-21T13:18:55;3.08;;;2.05;;
39190;SDS011;24916;51.676;6.614;2023-11-21T13:21:20;2.70;;;2.10;;
39190;SDS011;24916;51.676;6.614;2023-11-21T13:23:47;4.30;;;2.00;;
39190;SDS011;24916;51.676;6.614;2023-11-21T13:26:15;2.67;;;2.03;;
39190;SDS011;24916;51.676;6.614;2023-11-21T13:28:40;2.70;;;2.00;;
39190;SDS011;24916;51.676;6.614;2023-11-21T13:31:10;3.33;;;2.15;;
39190;SDS011;24916;51.676;6.614;2023-11-21T13:33:46;2.58;;;2.08;;
39190;SDS011;24916;51.676;6.614;2023-11-21T13:36:16;2.60;;;1.98;;
39190;SDS011;24916;51.676;6.614;2023-11-21T13:38:47;3.05;;;2.28;;
39190;SDS011;24916;51.676;6.614;2023-11-21T13:41:13;2.20;;;2.00;;
39190;SDS011;24916;51.676;6.614;2023-11-21T13:43:39;2.42;;;1.80;;
39190;SDS011;24916;51.676;6.614;2023-11-21T13:46:04;3.17;;;1.90;;
39190;SDS011;24916;51.676;6.614;2023-11-21T13:48:38;2.45;;;1.98;;
39190;SDS011;24916;51.676;6.614;2023-11-21T13:51:07;2.78;;;2.00;;
39190;SDS011;24916;51.676;6.614;2023-11-21T13:53:42;2.20;;;1.80;;
39190;SDS011;24916;51.676;6.614;2023-11-21T13:56:07;2.45;;;1.63;;
39190;SDS011;24916;51.676;6.614;2023-11-21T13:58:34;2.70;;;1.92;;
39190;SDS011;24916;51.676;6.614;2023-11-21T14:01:18;2.55;;;1.70;;
39190;SDS011;24916;51.676;6.614;2023-11-21T14:04:13;3.20;;;1.85;;
39190;SDS011;24916;51.676;6.614;2023-11-21T14:06:45;2.15;;;1.70;;
39190;SDS011;24916;51.676;6.614;2023-11-21T14:09:22;2.80;;;1.73;;
39190;SDS011;24916;51.676;6.614;2023-11-21T14:11:54;2.05;;;1.85;;
39190;SDS011;24916;51.676;6.614;2023-11-21T14:14:22;2.30;;;1.73;;
39190;SDS011;24916;51.676;6.614;2023-11-21T14:16:47;1.40;;;1.30;;
39190;SDS011;24916;51.676;6.614;2023-11-21T14:19:12;2.00;;;1.70;;
39190;SDS011;24916;51.676;6.614;2023-11-21T14:21:41;2.53;;;1.80;;
39190;SDS011;24916;51.676;6.614;2023-11-21T14:24:10;2.30;;;1.85;;
39190;SDS011;24916;51.676;6.614;2023-11-21T14:26:38;2.05;;;1.50;;
39190;SDS011;24916;51.676;6.614;2023-11-21T14:29:05;2.20;;;1.73;;
39190;SDS011;24916;51.676;6.614;2023-11-21T14:31:30;2.33;;;1.50;;
39190;SDS011;24916;51.676;6.614;2023-11-21T14:33:57;2.83;;;1.77;;
39190;SDS011;24916;51.676;6.614;2023-11-21T14:36:22;1.90;;;1.50;;
39190;SDS011;24916;51.676;6.614;2023-11-21T14:38:49;1.70;;;1.48;;
39190;SDS011;24916;51.676;6.614;2023-11-21T14:41:14;1.75;;;1.65;;
39190;SDS011;24916;51.676;6.614;2023-11-21T14:43:39;2.75;;;1.52;;
39190;SDS011;24916;51.676;6.614;2023-11-21T14:46:06;2.60;;;1.95;;
39190;SDS011;24916;51.676;6.614;2023-11-21T14:48:35;3.40;;;2.00;;
39190;SDS011;24916;51.676;6.614;2023-11-21T14:51:12;5.03;;;1.83;;
39190;SDS011;24916;51.676;6.614;2023-11-21T14:53:43;1.98;;;1.63;;
39190;SDS011;24916;51.676;6.614;2023-11-21T14:56:19;2.20;;;1.70;;
39190;SDS011;24916;51.676;6.614;2023-11-21T14:58:55;2.78;;;1.58;;
39190;SDS011;24916;51.676;6.614;2023-11-21T15:01:21;2.35;;;1.77;;
39190;SDS011;24916;51.676;6.614;2023-11-21T15:04:01;2.45;;;1.70;;
39190;SDS011;24916;51.676;6.614;2023-11-21T15:06:27;3.05;;;1.52;;
39190;SDS011;24916;51.676;6.614;2023-11-21T15:08:55;2.65;;;2.10;;
39190;SDS011;24916;51.676;6.614;2023-11-21T15:11:41;3.03;;;1.85;;
39190;SDS011;24916;51.676;6.614;2023-11-21T15:14:07;2.92;;;1.88;;
39190;SDS011;24916;51.676;6.614;2023-11-21T15:16:35;3.53;;;1.90;;
39190;SDS011;24916;51.676;6.614;2023-11-21T15:19:05;2.28;;;1.80;;
39190;SDS011;24916;51.676;6.614;2023-11-21T15:21:30;4.32;;;1.80;;
39190;SDS011;24916;51.676;6.614;2023-11-21T15:23:57;2.47;;;1.60;;
39190;SDS011;24916;51.676;6.614;2023-11-21T15:26:22;3.78;;;1.88;;
39190;SDS011;24916;51.676;6.614;2023-11-21T15:28:47;3.17;;;1.60;;
39190;SDS011;24916;51.676;6.614;2023-11-21T15:31:13;2.58;;;1.50;;
39190;SDS011;24916;51.676;6.614;2023-11-21T15:33:41;1.75;;;1.50;;
39190;SDS011;24916;51.676;6.614;2023-11-21T15:36:07;2.80;;;1.60;;
39190;SDS011;24916;51.676;6.614;2023-11-21T15:38:35;1.92;;;1.63;;
39190;SDS011;24916;51.676;6.614;2023-11-21T15:41:09;2.28;;;1.42;;
39190;SDS011;24916;51.676;6.614;2023-11-21T15:43:36;2.45;;;1.40;;
39190;SDS011;24916;51.676;6.614;2023-11-21T15:46:01;1.98;;;1.50;;
39190;SDS011;24916;51.676;6.614;2023-11-21T15:48:31;3.55;;;1.48;;
39190;SDS011;24916;51.676;6.614;2023-11-21T15:50:56;2.65;;;1.70;;
39190;SDS011;24916;51.676;6.614;2023-11-21T15:53:22;1.77;;;1.50;;
39190;SDS011;24916;51.676;6.614;2023-11-21T15:55:48;2.13;;;1.42;;
39190;SDS011;24916;51.676;6.614;2023-11-21T15:58:13;1.50;;;1.38;;
39190;SDS011;24916;51.676;6.614;2023-11-21T16:00:38;2.47;;;1.40;;
39190;SDS011;24916;51.676;6.614;2023-11-21T16:03:04;2.47;;;1.77;;
39190;SDS011;24916;51.676;6.614;2023-11-21T16:05:29;1.83;;;1.48;;
39190;SDS011;24916;51.676;6.614;2023-11-21T16:07:55;3.03;;;1.77;;
39190;SDS011;24916;51.676;6.614;2023-11-21T16:10:20;1.77;;;1.40;;
39190;SDS011;24916;51.676;6.614;2023-11-21T16:12:45;2.00;;;1.80;;
39190;SDS011;24916;51.676;6.614;2023-11-21T16:15:14;1.63;;;1.50;;
39190;SDS011;24916;51.676;6.614;2023-11-21T16:17:40;2.03;;;1.45;;
39190;SDS011;24916;51.676;6.614;2023-11-21T16:20:07;2.03;;;1.70;;
39190;SDS011;24916;51.676;6.614;2023-11-21T16:22:36;1.40;;;1.30;;
39190;SDS011;24916;51.676;6.614;2023-11-21T16:25:02;1.58;;;1.48;;
39190;SDS011;24916;51.676;6.614;2023-11-21T16:27:29;1.45;;;1.30;;
39190;SDS011;24916;51.676;6.614;2023-11-21T16:29:54;1.40;;;1.30;;
39190;SDS011;24916;51.676;6.614;2023-11-21T16:32:20;1.73;;;1.60;;
39190;SDS011;24916;51.676;6.614;2023-11-21T16:34:45;3.42;;;1.30;;
39190;SDS011;24916;51.676;6.614;2023-11-21T16:37:10;1.67;;;1.30;;
39190;SDS011;24916;51.676;6.614;2023-11-21T16:39:36;1.40;;;1.23;;
39190;SDS011;24916;51.676;6.614;2023-11-21T16:42:01;2.13;;;1.40;;
39190;SDS011;24916;51.676;6.614;2023-11-21T16:44:26;1.65;;;1.20;;
39190;SDS011;24916;51.676;6.614;2023-11-21T16:46:52;1.27;;;1.13;;
39190;SDS011;24916;51.676;6.614;2023-11-21T16:49:18;2.80;;;1.50;;
39190;SDS011;24916;51.676;6.614;2023-11-21T16:51:47;1.65;;;1.40;;
39190;SDS011;24916;51.676;6.614;2023-11-21T16:54:15;1.77;;;1.40;;
39190;SDS011;24916;51.676;6.614;2023-11-21T16:56:41;1.90;;;1.40;;
39190;SDS011;24916;51.676;6.614;2023-11-21T16:59:08;3.95;;;1.40;;
39190;SDS011;24916;51.676;6.614;2023-11-21T17:01:34;1.88;;;1.17;;
39190;SDS011;24916;51.676;6.614;2023-11-21T17:03:59;2.65;;;1.60;;
39190;SDS011;24916;51.676;6.614;2023-11-21T17:06:24;2.00;;;1.27;;
39190;SDS011;24916;51.676;6.614;2023-11-21T17:08:51;1.90;;;1.38;;
39190;SDS011;24916;51.676;6.614;2023-11-21T17:11:16;2.67;;;1.55;;
39190;SDS011;24916;51.676;6.614;2023-11-21T17:13:41;2.47;;;1.50;;
39190;SDS011;24916;51.676;6.614;2023-11-21T17:16:07;3.10;;;1.30;;
39190;SDS011;24916;51.676;6.614;2023-11-21T17:18:32;1.42;;;1.33;;
39190;SDS011;24916;51.676;6.614;2023-11-21T17:20:58;1.85;;;1.48;;
39190;SDS011;24916;51.676;6.614;2023-11-21T17:23:23;2.05;;;1.25;;
39190;SDS011;24916;51.676;6.614;2023-11-21T17:25:48;1.30;;;1.10;;
39190;SDS011;24916;51.676;6.614;2023-11-21T17:28:14;2.05;;;1.30;;
39190;SDS011;24916;51.676;6.614;2023-11-21T17:30:39;1.42;;;1.30;;
39190;SDS011;24916;51.676;6.614;2023-11-21T17:33:04;1.45;;;1.35;;
39190;SDS011;24916;51.676;6.614;2023-11-21T17:35:31;2.05;;;1.25;;
39190;SDS011;24916;51.676;6.614;2023-11-21T17:37:57;1.77;;;1.40;;
39190;SDS011;24916;51.676;6.614;2023-11-21T17:40:23;1.40;;;1.20;;
39190;SDS011;24916;51.676;6.614;2023-11-21T17:42:51;1.88;;;1.50;;
39190;SDS011;24916;51.676;6.614;2023-11-21T17:45:16;2.05;;;1.38;;
39190;SDS011;24916;51.676;6.614;2023-11-21T17:47:41;1.60;;;1.35;;
39190;SDS011;24916;51.676;6.614;2023-11-21T17:50:07;1.55;;;1.35;;
39190;SDS011;24916;51.676;6.614;2023-11-21T17:52:32;1.60;;;1.30;;
39190;SDS011;24916;51.676;6.614;2023-11-21T17:54:59;1.50;;;1.33;;
39190;SDS011;24916;51.676;6.614;2023-11-21T17:57:25;1.50;;;1.20;;
39190;SDS011;24916;51.676;6.614;2023-11-21T17:59:50;1.77;;;1.20;;
39190;SDS011;24916;51.676;6.614;2023-11-21T18:02:16;1.92;;;1.42;;
39190;SDS011;24916;51.676;6.614;2023-11-21T18:04:41;1.50;;;1.17;;
39190;SDS011;24916;51.676;6.614;2023-11-21T18:07:06;1.33;;;1.23;;
39190;SDS011;24916;51.676;6.614;2023-11-21T18:09:32;1.70;;;1.30;;
39190;SDS011;24916;51.676;6.614;2023-11-21T18:11:58;1.70;;;1.30;;
39190;SDS011;24916;51.676;6.614;2023-11-21T18:14:24;1.67;;;1.55;;
39190;SDS011;24916;51.676;6.614;2023-11-21T18:16:49;2.78;;;1.63;;
39190;SDS011;24916;51.676;6.614;2023-11-21T18:19:15;2.13;;;1.30;;
39190;SDS011;24916;51.676;6.614;2023-11-21T18:21:41;1.20;;;1.10;;
39190;SDS011;24916;51.676;6.614;2023-11-21T18:24:07;1.63;;;1.45;;
39190;SDS011;24916;51.676;6.614;2023-11-21T18:26:32;2.33;;;1.40;;
39190;SDS011;24916;51.676;6.614;2023-11-21T18:28:58;2.50;;;1.50;;
39190;SDS011;24916;51.676;6.614;2023-11-21T18:31:24;1.55;;;1.45;;
39190;SDS011;24916;51.676;6.614;2023-11-21T18:33:49;1.63;;;1.50;;
39190;SDS011;24916;51.676;6.614;2023-11-21T18:36:16;1.70;;;1.48;;
39190;SDS011;24916;51.676;6.614;2023-11-21T18:38:42;3.85;;;1.50;;
39190;SDS011;24916;51.676;6.614;2023-11-21T18:41:07;1.73;;;1.20;;
39190;SDS011;24916;51.676;6.614;2023-11-21T18:43:32;1.77;;;1.48;;
39190;SDS011;24916;51.676;6.614;2023-11-21T18:45:58;1.52;;;1.27;;
39190;SDS011;24916;51.676;6.614;2023-11-21T18:48:23;1.75;;;1.30;;
39190;SDS011;24916;51.676;6.614;2023-11-21T18:50:50;1.38;;;1.20;;
39190;SDS011;24916;51.676;6.614;2023-11-21T18:53:19;1.83;;;1.27;;
39190;SDS011;24916;51.676;6.614;2023-11-21T18:55:45;1.90;;;1.40;;
39190;SDS011;24916;51.676;6.614;2023-11-21T18:58:11;1.80;;;1.40;;
39190;SDS011;24916;51.676;6.614;2023-11-21T19:00:36;3.08;;;1.10;;
39190;SDS011;24916;51.676;6.614;2023-11-21T19:03:02;1.65;;;1.25;;
39190;SDS011;24916;51.676;6.614;2023-11-21T19:05:28;1.58;;;1.30;;
39190;SDS011;24916;51.676;6.614;2023-11-21T19:08:01;2.58;;;1.40;;
39190;SDS011;24916;51.676;6.614;2023-11-21T19:10:26;1.30;;;1.20;;
39190;SDS011;24916;51.676;6.614;2023-11-21T19:12:54;1.52;;;1.40;;
39190;SDS011;24916;51.676;6.614;2023-11-21T19:15:20;1.52;;;1.35;;
39190;SDS011;24916;51.676;6.614;2023-11-21T19:17:45;1.30;;;1.20;;
39190;SDS011;24916;51.676;6.614;2023-11-21T19:20:10;1.27;;;1.17;;
39190;SDS011;24916;51.676;6.614;2023-11-21T19:22:36;2.03;;;1.33;;
39190;SDS011;24916;51.676;6.614;2023-11-21T19:25:02;1.58;;;1.40;;
39190;SDS011;24916;51.676;6.614;2023-11-21T19:27:29;1.65;;;1.42;;
39190;SDS011;24916;51.676;6.614;2023-11-21T19:29:55;1.88;;;1.40;;
39190;SDS011;24916;51.676;6.614;2023-11-21T19:32:20;1.50;;;1.25;;
39190;SDS011;24916;51.676;6.614;2023-11-21T19:34:45;1.35;;;1.08;;
39190;SDS011;24916;51.676;6.614;2023-11-21T19:37:11;1.55;;;1.17;;
39190;SDS011;24916;51.676;6.614;2023-11-21T19:39:37;2.15;;;1.05;;
39190;SDS011;24916;51.676;6.614;2023-11-21T19:42:02;1.42;;;1.33;;